createdAt,value
2017-08-09T00:01:04.999Z,913
2017-08-09T00:02:12.473Z,913
2017-08-09T00:03:20.253Z,913
2017-08-09T00:04:27.742Z,913
2017-08-09T00:05:35.249Z,913
2017-08-09T00:06:42.734Z,913
2017-08-09T00:07:49.876Z,912
2017-08-09T00:08:57.656Z,911
2017-08-09T00:10:05.143Z,910
2017-08-09T00:11:12.623Z,911
2017-08-09T00:12:20.107Z,910
2017-08-09T00:13:27.599Z,910
2017-08-09T00:14:35.377Z,910
2017-08-09T00:15:42.858Z,910
2017-08-09T00:16:50.347Z,910
2017-08-09T00:17:57.834Z,910
2017-08-09T00:19:05.316Z,909
2017-08-09T00:20:13.099Z,909
2017-08-09T00:21:20.593Z,908
2017-08-09T00:22:28.080Z,908
2017-08-09T00:23:35.566Z,907
2017-08-09T00:24:43.040Z,908
2017-08-09T00:25:50.490Z,907
2017-08-09T00:26:57.645Z,908
2017-08-09T00:28:04.829Z,908
2017-08-09T00:29:12.308Z,907
2017-08-09T00:30:19.789Z,908
2017-08-09T00:31:29.020Z,907
2017-08-09T00:32:36.502Z,908
2017-08-09T00:33:43.991Z,907
2017-08-09T00:34:51.467Z,907
2017-08-09T00:35:58.289Z,907
2017-08-09T00:37:06.088Z,907
2017-08-09T00:38:13.589Z,908
2017-08-09T00:39:21.079Z,907
2017-08-09T00:40:28.579Z,907
2017-08-09T00:41:36.063Z,907
2017-08-09T00:42:43.846Z,908
2017-08-09T00:43:51.332Z,907
2017-08-09T00:46:05.920Z,904
2017-08-09T00:47:13.393Z,905
2017-08-09T00:48:21.170Z,903
2017-08-09T00:49:28.651Z,904
2017-08-09T00:50:36.127Z,903
2017-08-09T00:51:43.514Z,904
2017-08-09T00:52:50.995Z,903
2017-08-09T00:53:58.778Z,903
2017-08-09T00:55:06.258Z,903
2017-08-09T00:56:13.740Z,903
2017-08-09T00:57:21.240Z,903
2017-08-09T00:58:28.724Z,903
2017-08-09T00:59:36.517Z,902
2017-08-09T01:00:43.999Z,902
2017-08-09T01:01:51.156Z,902
2017-08-09T01:02:58.634Z,901
2017-08-09T01:04:06.112Z,901
2017-08-09T01:05:13.894Z,901
2017-08-09T01:06:21.376Z,899
2017-08-09T01:07:28.854Z,897
2017-08-09T01:08:36.339Z,899
2017-08-09T01:09:43.829Z,898
2017-08-09T01:10:51.287Z,898
2017-08-09T01:11:58.770Z,898
2017-08-09T01:13:06.252Z,897
2017-08-09T01:14:13.735Z,897
2017-08-09T01:15:21.211Z,897
2017-08-09T01:16:28.993Z,896
2017-08-09T01:17:37.337Z,896
2017-08-09T01:18:44.823Z,897
2017-08-09T01:19:51.981Z,897
2017-08-09T01:20:59.460Z,896
2017-08-09T01:22:07.232Z,896
2017-08-09T01:23:14.718Z,896
2017-08-09T01:24:21.866Z,896
2017-08-09T01:25:29.367Z,894
2017-08-09T01:26:36.539Z,893
2017-08-09T01:27:44.332Z,892
2017-08-09T01:28:51.808Z,888
2017-08-09T01:29:59.287Z,885
2017-08-09T01:31:06.777Z,883
2017-08-09T01:32:14.263Z,882
2017-08-09T01:33:22.039Z,880
2017-08-09T01:34:29.522Z,881
2017-08-09T01:35:37.015Z,881
2017-08-09T01:36:44.496Z,883
2017-08-09T01:37:51.980Z,883
2017-08-09T01:38:59.763Z,883
2017-08-09T01:40:06.915Z,883
2017-08-09T01:41:14.394Z,880
2017-08-09T01:42:21.876Z,882
2017-08-09T01:43:29.354Z,882
2017-08-09T01:44:37.135Z,881
2017-08-09T01:45:44.283Z,881
2017-08-09T01:46:51.754Z,882
2017-08-09T01:47:59.241Z,882
2017-08-09T01:49:06.721Z,883
2017-08-09T01:50:14.496Z,882
2017-08-09T01:51:21.979Z,883
2017-08-09T01:52:29.458Z,884
2017-08-09T01:53:36.941Z,885
2017-08-09T01:54:44.438Z,885
2017-08-09T01:55:52.216Z,885
2017-08-09T01:56:59.737Z,885
2017-08-09T01:58:07.218Z,885
2017-08-09T01:59:14.372Z,886
2017-08-09T02:00:21.522Z,886
2017-08-09T02:01:29.306Z,885
2017-08-09T02:02:36.785Z,886
2017-08-09T02:03:43.945Z,885
2017-08-09T02:04:51.426Z,885
2017-08-09T02:05:58.915Z,885
2017-08-09T02:07:06.697Z,885
2017-08-09T02:08:14.178Z,885
2017-08-09T02:09:21.347Z,884
2017-08-09T02:10:28.830Z,884
2017-08-09T02:11:35.986Z,885
2017-08-09T02:12:43.438Z,885
2017-08-09T02:13:50.958Z,886
2017-08-09T02:14:58.446Z,885
2017-08-09T02:16:05.928Z,886
2017-08-09T02:17:13.078Z,885
2017-08-09T02:18:20.859Z,887
2017-08-09T02:19:28.338Z,886
2017-08-09T02:20:35.824Z,886
2017-08-09T02:21:43.304Z,888
2017-08-09T02:22:50.782Z,887
2017-08-09T02:23:58.566Z,887
2017-08-09T02:25:06.043Z,888
2017-08-09T02:26:13.543Z,887
2017-08-09T02:27:21.025Z,888
2017-08-09T02:28:28.507Z,889
2017-08-09T02:29:36.289Z,889
2017-08-09T02:30:43.998Z,890
2017-08-09T02:31:51.489Z,889
2017-08-09T02:32:59.000Z,890
2017-08-09T02:34:06.152Z,890
2017-08-09T02:35:13.616Z,891
2017-08-09T02:36:21.093Z,891
2017-08-09T02:37:28.244Z,891
2017-08-09T02:38:35.727Z,892
2017-08-09T02:39:43.201Z,891
2017-08-09T02:40:50.984Z,892
2017-08-09T02:41:58.461Z,892
2017-08-09T02:43:05.953Z,892
2017-08-09T02:44:13.437Z,892
2017-08-09T02:45:20.916Z,893
2017-08-09T02:46:28.700Z,892
2017-08-09T02:47:36.189Z,892
2017-08-09T02:48:43.002Z,893
2017-08-09T02:49:50.479Z,892
2017-08-09T02:50:57.630Z,892
2017-08-09T02:52:05.421Z,890
2017-08-09T02:53:12.905Z,890
2017-08-09T02:54:20.429Z,891
2017-08-09T02:55:27.581Z,892
2017-08-09T02:56:35.058Z,893
2017-08-09T02:57:42.837Z,892
2017-08-09T02:58:50.317Z,893
2017-08-09T02:59:57.802Z,893
2017-08-09T03:01:04.964Z,892
2017-08-09T03:02:12.443Z,892
2017-08-09T03:03:20.225Z,893
2017-08-09T03:04:27.704Z,893
2017-08-09T03:05:34.857Z,893
2017-08-09T03:06:42.334Z,890
2017-08-09T03:07:49.484Z,888
2017-08-09T03:08:57.522Z,889
2017-08-09T03:10:05.002Z,889
2017-08-09T03:11:12.481Z,886
2017-08-09T03:12:19.965Z,881
2017-08-09T03:13:27.448Z,871
2017-08-09T03:14:35.287Z,878
2017-08-09T03:15:42.443Z,872
2017-08-09T03:16:50.144Z,866
2017-08-09T03:17:57.627Z,861
2017-08-09T03:19:05.111Z,862
2017-08-09T03:20:12.893Z,859
2017-08-09T03:21:20.050Z,852
2017-08-09T03:22:27.206Z,845
2017-08-09T03:23:34.359Z,841
2017-08-09T03:24:41.837Z,820
2017-08-09T03:25:49.338Z,818
2017-08-09T03:26:56.491Z,817
2017-08-09T03:28:03.878Z,823
2017-08-09T03:29:11.041Z,821
2017-08-09T03:30:18.535Z,815
2017-08-09T03:31:26.367Z,816
2017-08-09T03:32:33.877Z,814
2017-08-09T03:33:41.032Z,812
2017-08-09T03:34:48.518Z,812
2017-08-09T03:35:55.994Z,808
2017-08-09T03:37:03.164Z,815
2017-08-09T03:38:10.637Z,816
2017-08-09T03:39:17.460Z,814
2017-08-09T03:40:24.934Z,804
2017-08-09T03:41:32.414Z,805
2017-08-09T03:42:40.245Z,803
2017-08-09T03:43:47.721Z,800
2017-08-09T03:44:55.207Z,801
2017-08-09T03:46:02.687Z,805
2017-08-09T03:47:10.186Z,813
2017-08-09T03:48:18.133Z,815
2017-08-09T03:49:25.633Z,813
2017-08-09T03:50:33.117Z,810
2017-08-09T03:51:40.593Z,812
2017-08-09T03:52:48.068Z,814
2017-08-09T03:53:55.845Z,815
2017-08-09T03:55:03.335Z,811
2017-08-09T03:56:10.816Z,812
2017-08-09T03:57:18.307Z,808
2017-08-09T03:58:25.787Z,804
2017-08-09T03:59:33.618Z,801
2017-08-09T04:00:41.096Z,801
2017-08-09T04:01:48.576Z,799
2017-08-09T04:02:56.051Z,795
2017-08-09T04:04:03.537Z,796
2017-08-09T04:05:10.988Z,780
2017-08-09T04:06:18.469Z,728
2017-08-09T04:07:25.946Z,754
2017-08-09T04:09:55.561Z,778
2017-08-09T04:11:03.393Z,787
2017-08-09T04:12:10.873Z,786
2017-08-09T04:13:18.345Z,792
2017-08-09T04:14:25.828Z,792
2017-08-09T04:15:33.303Z,786
2017-08-09T04:16:41.140Z,789
2017-08-09T04:17:48.612Z,790
2017-08-09T04:18:56.110Z,790
2017-08-09T04:20:03.587Z,789
2017-08-09T04:21:11.089Z,797
2017-08-09T04:22:18.923Z,790
2017-08-09T04:23:26.403Z,800
2017-08-09T04:24:33.885Z,795
2017-08-09T04:25:40.710Z,796
2017-08-09T04:26:48.184Z,790
2017-08-09T04:27:55.633Z,792
2017-08-09T04:29:03.108Z,793
2017-08-09T04:30:10.589Z,790
2017-08-09T04:31:18.076Z,792
2017-08-09T04:32:25.556Z,781
2017-08-09T04:33:33.050Z,782
2017-08-09T04:34:40.530Z,792
2017-08-09T04:35:48.006Z,829
2017-08-09T04:36:55.488Z,821
2017-08-09T04:38:02.968Z,819
2017-08-09T04:39:10.793Z,847
2017-08-09T04:40:17.954Z,848
2017-08-09T04:41:25.439Z,846
2017-08-09T04:42:32.934Z,848
2017-08-09T04:43:40.414Z,860
2017-08-09T04:44:47.865Z,864
2017-08-09T04:45:55.014Z,865
2017-08-09T04:47:02.489Z,867
2017-08-09T04:48:09.964Z,870
2017-08-09T04:49:17.441Z,872
2017-08-09T04:50:25.622Z,875
2017-08-09T04:51:33.095Z,879
2017-08-09T04:52:40.579Z,880
2017-08-09T04:53:48.062Z,882
2017-08-09T04:54:55.541Z,884
2017-08-09T04:56:03.367Z,884
2017-08-09T04:57:10.845Z,883
2017-08-09T04:58:18.322Z,884
2017-08-09T04:59:40.632Z,883
2017-08-09T05:00:47.779Z,883
2017-08-09T05:01:55.559Z,882
2017-08-09T05:03:03.036Z,884
2017-08-09T05:04:10.512Z,883
2017-08-09T05:05:17.997Z,884
2017-08-09T05:06:25.480Z,884
2017-08-09T05:07:33.313Z,884
2017-08-09T05:08:40.793Z,886
2017-08-09T05:09:48.275Z,886
2017-08-09T05:10:55.746Z,889
2017-08-09T05:12:03.227Z,888
2017-08-09T05:13:11.053Z,889
2017-08-09T05:14:18.554Z,889
2017-08-09T05:15:25.711Z,889
2017-08-09T05:16:33.214Z,891
2017-08-09T05:17:40.694Z,892
2017-08-09T05:18:48.174Z,901
2017-08-09T05:19:55.954Z,898
2017-08-09T05:21:03.430Z,896
2017-08-09T05:22:10.573Z,893
2017-08-09T05:23:17.725Z,892
2017-08-09T05:24:24.866Z,891
2017-08-09T05:25:32.311Z,885
2017-08-09T05:26:39.782Z,878
2017-08-09T05:27:47.254Z,878
2017-08-09T05:28:54.730Z,876
2017-08-09T05:30:01.882Z,878
2017-08-09T05:31:09.663Z,879
2017-08-09T05:32:17.160Z,878
2017-08-09T05:33:24.541Z,878
2017-08-09T05:34:32.990Z,879
2017-08-09T05:35:40.466Z,878
2017-08-09T05:36:47.925Z,876
2017-08-09T05:37:55.406Z,877
2017-08-09T05:39:02.882Z,876
2017-08-09T05:40:10.354Z,876
2017-08-09T05:41:17.836Z,873
2017-08-09T05:42:25.612Z,874
2017-08-09T05:43:33.088Z,874
2017-08-09T05:44:40.566Z,874
2017-08-09T05:45:47.390Z,877
2017-08-09T05:46:54.872Z,878
2017-08-09T05:48:02.654Z,880
2017-08-09T05:49:10.135Z,882
2017-08-09T05:50:17.620Z,883
2017-08-09T05:51:25.108Z,885
2017-08-09T05:52:32.597Z,885
2017-08-09T05:53:40.084Z,886
2017-08-09T05:54:47.158Z,888
2017-08-09T05:55:54.316Z,887
2017-08-09T05:57:01.790Z,888
2017-08-09T05:58:09.269Z,889
2017-08-09T05:59:17.044Z,890
2017-08-09T06:00:24.195Z,890
2017-08-09T06:01:31.339Z,891
2017-08-09T06:02:38.816Z,892
2017-08-09T06:03:45.974Z,893
2017-08-09T06:04:53.746Z,892
2017-08-09T06:06:00.896Z,895
2017-08-09T06:07:08.052Z,894
2017-08-09T06:08:15.531Z,895
2017-08-09T06:09:22.682Z,896
2017-08-09T06:10:30.461Z,896
2017-08-09T06:11:37.943Z,896
2017-08-09T06:12:45.432Z,897
2017-08-09T06:13:52.909Z,897
2017-08-09T06:15:00.393Z,898
2017-08-09T06:16:08.190Z,898
2017-08-09T06:17:15.669Z,899
2017-08-09T06:18:23.149Z,893
2017-08-09T06:19:30.633Z,893
2017-08-09T06:20:38.112Z,894
2017-08-09T06:21:45.891Z,894
2017-08-09T06:22:53.372Z,894
2017-08-09T06:24:00.524Z,895
2017-08-09T06:25:08.023Z,897
2017-08-09T06:26:15.497Z,896
2017-08-09T06:27:23.329Z,897
2017-08-09T06:28:30.808Z,893
2017-08-09T06:29:38.157Z,895
2017-08-09T06:30:45.635Z,895
2017-08-09T06:31:52.791Z,896
2017-08-09T06:33:00.621Z,898
2017-08-09T06:34:07.775Z,899
2017-08-09T06:35:15.252Z,900
2017-08-09T06:36:22.729Z,901
2017-08-09T06:37:30.202Z,902
2017-08-09T06:38:37.974Z,901
2017-08-09T06:39:45.130Z,903
2017-08-09T06:40:52.869Z,902
2017-08-09T06:42:00.365Z,902
2017-08-09T06:43:07.849Z,903
2017-08-09T06:44:15.330Z,903
2017-08-09T06:45:22.843Z,904
2017-08-09T06:46:30.332Z,904
2017-08-09T06:47:38.160Z,904
2017-08-09T06:48:45.647Z,905
2017-08-09T06:49:53.126Z,905
2017-08-09T06:51:00.603Z,906
2017-08-09T06:52:08.089Z,907
2017-08-09T06:53:15.569Z,907
2017-08-09T06:54:22.722Z,907
2017-08-09T06:55:30.506Z,908
2017-08-09T06:56:37.989Z,907
2017-08-09T06:57:45.469Z,908
2017-08-09T06:58:52.951Z,908
2017-08-09T07:00:00.473Z,908
2017-08-09T07:01:08.262Z,907
2017-08-09T07:02:15.751Z,908
2017-08-09T07:03:22.901Z,908
2017-08-09T07:04:30.393Z,909
2017-08-09T07:05:37.872Z,909
2017-08-09T07:06:45.330Z,909
2017-08-09T07:07:52.823Z,909
2017-08-09T07:09:00.311Z,909
2017-08-09T07:10:07.795Z,909
2017-08-09T07:11:14.608Z,909
2017-08-09T07:12:22.087Z,910
2017-08-09T07:13:29.572Z,910
2017-08-09T07:14:36.727Z,912
2017-08-09T07:15:44.217Z,911
2017-08-09T07:16:51.691Z,911
2017-08-09T07:17:59.477Z,912
2017-08-09T07:19:06.645Z,912
2017-08-09T07:20:14.126Z,912
2017-08-09T07:21:21.282Z,913
2017-08-09T07:22:28.762Z,913
2017-08-09T07:23:36.208Z,913
2017-08-09T07:24:43.695Z,913
2017-08-09T07:25:50.867Z,913
2017-08-09T07:26:58.346Z,914
2017-08-09T07:28:05.832Z,914
2017-08-09T07:29:13.618Z,914
2017-08-09T07:30:21.124Z,915
2017-08-09T07:31:28.275Z,915
2017-08-09T07:32:35.759Z,916
2017-08-09T07:33:43.238Z,916
2017-08-09T07:34:51.085Z,917
2017-08-09T07:35:58.567Z,916
2017-08-09T07:37:05.717Z,916
2017-08-09T07:38:13.193Z,916
2017-08-09T07:39:20.350Z,916
2017-08-09T07:40:27.800Z,917
2017-08-09T07:41:35.477Z,916
2017-08-09T07:42:42.984Z,916
2017-08-09T07:43:50.473Z,916
2017-08-09T07:44:57.987Z,916
2017-08-09T07:46:05.776Z,915
2017-08-09T07:47:13.258Z,915
2017-08-09T07:48:20.749Z,915
2017-08-09T07:49:28.228Z,915
2017-08-09T07:50:35.711Z,916
2017-08-09T07:51:43.583Z,917
2017-08-09T07:52:51.067Z,917
2017-08-09T07:53:58.561Z,917
2017-08-09T07:55:05.717Z,917
2017-08-09T07:56:13.204Z,917
2017-08-09T07:57:20.385Z,917
2017-08-09T07:58:27.534Z,918
2017-08-09T07:59:35.019Z,917
2017-08-09T08:00:42.508Z,917
2017-08-09T08:01:49.988Z,917
2017-08-09T08:02:57.477Z,917
2017-08-09T08:04:05.267Z,917
2017-08-09T08:05:12.421Z,918
2017-08-09T08:06:19.579Z,918
2017-08-09T08:07:26.756Z,919
2017-08-09T08:08:34.245Z,918
2017-08-09T08:09:42.087Z,919
2017-08-09T08:10:49.569Z,919
2017-08-09T08:11:57.055Z,919
2017-08-09T08:13:04.548Z,920
2017-08-09T08:14:12.030Z,920
2017-08-09T08:15:19.812Z,919
2017-08-09T08:16:27.324Z,920
2017-08-09T08:17:34.813Z,920
2017-08-09T08:18:42.845Z,920
2017-08-09T08:19:50.347Z,920
2017-08-09T08:20:57.817Z,920
2017-08-09T08:22:05.302Z,921
2017-08-09T08:23:12.480Z,921
2017-08-09T08:24:19.813Z,921
2017-08-09T08:25:26.971Z,922
2017-08-09T08:26:34.808Z,920
2017-08-09T08:27:42.305Z,921
2017-08-09T08:28:49.788Z,921
2017-08-09T08:29:57.279Z,921
2017-08-09T08:31:04.764Z,921
2017-08-09T08:32:13.577Z,922
2017-08-09T08:33:21.059Z,922
2017-08-09T08:34:28.541Z,922
2017-08-09T08:35:35.702Z,923
2017-08-09T08:36:42.929Z,923
2017-08-09T08:37:50.714Z,924
2017-08-09T08:38:58.208Z,923
2017-08-09T08:40:05.693Z,922
2017-08-09T08:41:12.525Z,923
2017-08-09T08:42:20.006Z,923
2017-08-09T08:43:27.843Z,923
2017-08-09T08:44:35.333Z,923
2017-08-09T08:45:42.817Z,924
2017-08-09T08:46:50.301Z,924
2017-08-09T08:47:57.778Z,924
2017-08-09T08:49:05.294Z,925
2017-08-09T08:50:12.136Z,924
2017-08-09T08:51:19.624Z,925
2017-08-09T08:52:27.113Z,922
2017-08-09T08:53:34.595Z,925
2017-08-09T08:54:42.431Z,924
2017-08-09T08:55:49.923Z,925
2017-08-09T08:56:57.423Z,925
2017-08-09T08:58:04.913Z,925
2017-08-09T08:59:12.399Z,924
2017-08-09T09:00:19.903Z,925
2017-08-09T09:01:27.391Z,925
2017-08-09T09:02:34.876Z,924
2017-08-09T09:03:42.362Z,926
2017-08-09T09:04:49.852Z,926
2017-08-09T09:05:57.031Z,925
2017-08-09T09:07:04.514Z,925
2017-08-09T09:08:12.317Z,925
2017-08-09T09:09:19.803Z,925
2017-08-09T09:10:27.308Z,925
2017-08-09T09:11:34.792Z,924
2017-08-09T09:12:41.955Z,925
2017-08-09T09:13:49.405Z,925
2017-08-09T09:14:56.890Z,925
2017-08-09T09:16:04.373Z,925
2017-08-09T09:17:11.870Z,925
2017-08-09T09:18:19.354Z,926
2017-08-09T09:19:27.049Z,926
2017-08-09T09:20:34.535Z,926
2017-08-09T09:21:42.024Z,926
2017-08-09T09:22:49.738Z,926
2017-08-09T09:23:57.220Z,926
2017-08-09T09:25:05.265Z,926
2017-08-09T09:26:12.416Z,925
2017-08-09T09:27:19.914Z,924
2017-08-09T09:28:27.405Z,924
2017-08-09T09:29:34.887Z,924
2017-08-09T09:30:42.398Z,925
2017-08-09T09:31:49.916Z,925
2017-08-09T09:32:57.403Z,926
2017-08-09T09:34:04.889Z,927
2017-08-09T09:35:12.686Z,927
2017-08-09T09:36:20.179Z,927
2017-08-09T09:37:27.686Z,927
2017-08-09T09:38:34.839Z,927
2017-08-09T09:39:41.993Z,927
2017-08-09T09:40:49.774Z,927
2017-08-09T09:41:57.520Z,927
2017-08-09T09:43:05.006Z,927
2017-08-09T09:44:12.397Z,927
2017-08-09T09:45:19.892Z,928
2017-08-09T09:46:27.362Z,928
2017-08-09T09:47:34.845Z,929
2017-08-09T09:48:42.353Z,930
2017-08-09T09:49:49.840Z,929
2017-08-09T09:50:57.332Z,929
2017-08-09T09:52:05.183Z,929
2017-08-09T09:53:12.673Z,928
2017-08-09T09:54:20.174Z,927
2017-08-09T09:55:27.327Z,928
2017-08-09T09:56:34.817Z,928
2017-08-09T09:57:42.315Z,928
2017-08-09T09:58:49.806Z,929
2017-08-09T09:59:57.297Z,929
2017-08-09T10:01:04.457Z,929
2017-08-09T10:02:11.942Z,929
2017-08-09T10:03:19.627Z,929
2017-08-09T10:04:26.785Z,929
2017-08-09T10:05:33.953Z,929
2017-08-09T10:06:41.111Z,928
2017-08-09T10:07:48.613Z,926
2017-08-09T10:08:56.401Z,924
2017-08-09T10:10:03.920Z,925
2017-08-09T10:11:11.424Z,925
2017-08-09T10:12:18.913Z,925
2017-08-09T10:13:26.069Z,926
2017-08-09T10:14:33.527Z,926
2017-08-09T10:15:40.725Z,924
2017-08-09T10:16:48.228Z,923
2017-08-09T10:17:55.719Z,922
2017-08-09T10:19:02.881Z,923
2017-08-09T10:20:10.669Z,923
2017-08-09T10:21:18.155Z,921
2017-08-09T10:22:25.668Z,920
2017-08-09T10:23:33.161Z,921
2017-08-09T10:24:40.334Z,921
2017-08-09T10:25:48.126Z,922
2017-08-09T10:26:55.669Z,921
2017-08-09T10:28:02.828Z,921
2017-08-09T10:29:10.310Z,922
2017-08-09T10:30:18.229Z,921
2017-08-09T10:31:26.023Z,919
2017-08-09T10:32:33.752Z,920
2017-08-09T10:33:41.255Z,918
2017-08-09T10:34:48.438Z,919
2017-08-09T10:35:55.928Z,923
2017-08-09T10:37:03.409Z,923
2017-08-09T10:38:10.896Z,920
2017-08-09T10:39:18.381Z,919
2017-08-09T10:40:25.873Z,919
2017-08-09T10:41:33.595Z,919
2017-08-09T10:42:41.389Z,918
2017-08-09T10:43:49.105Z,921
2017-08-09T10:44:56.596Z,923
2017-08-09T10:46:04.084Z,924
2017-08-09T10:47:11.571Z,924
2017-08-09T10:48:19.369Z,924
2017-08-09T10:49:26.525Z,925
2017-08-09T10:50:34.015Z,923
2017-08-09T10:51:41.500Z,922
2017-08-09T10:52:48.668Z,921
2017-08-09T10:53:56.458Z,921
2017-08-09T10:55:03.941Z,920
2017-08-09T10:56:11.441Z,918
2017-08-09T10:57:18.930Z,918
2017-08-09T10:58:27.143Z,917
2017-08-09T10:59:34.642Z,917
2017-08-09T11:00:42.138Z,917
2017-08-09T11:01:49.622Z,917
2017-08-09T11:02:57.127Z,917
2017-08-09T11:04:04.918Z,918
2017-08-09T11:05:12.402Z,920
2017-08-09T11:06:19.894Z,920
2017-08-09T11:07:27.378Z,924
2017-08-09T11:08:34.867Z,924
2017-08-09T11:09:42.708Z,926
2017-08-09T11:10:50.200Z,927
2017-08-09T11:11:57.694Z,927
2017-08-09T11:13:04.869Z,926
2017-08-09T11:14:12.355Z,926
2017-08-09T11:15:19.892Z,931
2017-08-09T11:16:27.389Z,930
2017-08-09T11:17:34.885Z,925
2017-08-09T11:18:42.377Z,923
2017-08-09T11:19:49.873Z,921
2017-08-09T11:20:57.714Z,920
2017-08-09T11:22:05.201Z,919
2017-08-09T11:23:12.361Z,915
2017-08-09T11:24:19.848Z,917
2017-08-09T11:25:27.341Z,919
2017-08-09T11:26:35.179Z,920
2017-08-09T11:27:42.673Z,922
2017-08-09T11:28:50.159Z,924
2017-08-09T11:29:57.643Z,927
2017-08-09T11:31:04.477Z,930
2017-08-09T11:32:12.314Z,932
2017-08-09T11:33:19.668Z,929
2017-08-09T11:34:26.823Z,929
2017-08-09T11:35:34.310Z,931
2017-08-09T11:36:41.483Z,929
2017-08-09T11:37:49.321Z,930
2017-08-09T11:38:56.476Z,932
2017-08-09T11:40:03.967Z,933
2017-08-09T11:41:11.456Z,932
2017-08-09T11:42:18.953Z,931
2017-08-09T11:43:26.459Z,929
2017-08-09T11:44:33.949Z,926
2017-08-09T11:45:41.440Z,928
2017-08-09T11:46:48.930Z,926
2017-08-09T11:47:56.427Z,926
2017-08-09T11:49:04.267Z,926
2017-08-09T11:50:11.756Z,932
2017-08-09T11:51:19.249Z,935
2017-08-09T11:52:26.736Z,937
2017-08-09T11:53:34.243Z,938
2017-08-09T11:54:41.754Z,933
2017-08-09T11:55:49.241Z,928
2017-08-09T11:56:56.733Z,925
2017-08-09T11:58:03.898Z,922
2017-08-09T11:59:11.410Z,924
2017-08-09T12:00:19.201Z,927
2017-08-09T12:01:26.700Z,926
2017-08-09T12:02:34.190Z,926
2017-08-09T12:03:41.364Z,931
2017-08-09T12:04:48.517Z,929
2017-08-09T12:05:56.393Z,931
2017-08-09T12:07:03.880Z,931
2017-08-09T12:08:11.377Z,930
2017-08-09T12:09:18.866Z,929
2017-08-09T12:10:26.379Z,929
2017-08-09T12:11:34.166Z,930
2017-08-09T12:12:41.322Z,928
2017-08-09T12:13:48.150Z,929
2017-08-09T12:14:55.642Z,925
2017-08-09T12:16:03.131Z,927
2017-08-09T12:17:10.644Z,930
2017-08-09T12:18:18.136Z,927
2017-08-09T12:19:25.624Z,924
2017-08-09T12:20:33.112Z,924
2017-08-09T12:21:40.621Z,922
2017-08-09T12:22:48.472Z,922
2017-08-09T12:23:55.966Z,921
2017-08-09T12:25:03.497Z,920
2017-08-09T12:26:10.982Z,925
2017-08-09T12:27:18.482Z,929
2017-08-09T12:28:26.331Z,929
2017-08-09T12:29:33.823Z,930
2017-08-09T12:30:41.313Z,929
2017-08-09T12:31:49.043Z,933
2017-08-09T12:32:56.535Z,937
2017-08-09T12:34:04.591Z,941
2017-08-09T12:35:12.080Z,940
2017-08-09T12:36:19.570Z,940
2017-08-09T12:37:26.400Z,936
2017-08-09T12:38:33.894Z,930
2017-08-09T12:39:41.683Z,930
2017-08-09T12:40:49.655Z,933
2017-08-09T12:41:57.149Z,939
2017-08-09T12:43:04.643Z,938
2017-08-09T12:44:12.127Z,936
2017-08-09T12:45:19.970Z,938
2017-08-09T12:46:27.467Z,938
2017-08-09T12:47:34.964Z,940
2017-08-09T12:48:42.453Z,942
2017-08-09T12:49:49.951Z,941
2017-08-09T12:50:58.076Z,942
2017-08-09T12:52:05.558Z,943
2017-08-09T12:53:13.047Z,946
2017-08-09T12:54:20.542Z,946
2017-08-09T12:55:28.033Z,945
2017-08-09T12:56:35.875Z,944
2017-08-09T12:57:43.364Z,943
2017-08-09T12:58:50.851Z,942
2017-08-09T12:59:58.335Z,942
2017-08-09T13:01:05.838Z,942
2017-08-09T13:02:13.726Z,943
2017-08-09T13:03:21.221Z,944
2017-08-09T13:04:28.711Z,944
2017-08-09T13:05:36.200Z,943
2017-08-09T13:06:43.694Z,941
2017-08-09T13:07:50.854Z,940
2017-08-09T13:08:58.348Z,939
2017-08-09T13:10:05.505Z,938
2017-08-09T13:11:12.992Z,931
2017-08-09T13:12:20.830Z,929
2017-08-09T13:13:28.319Z,929
2017-08-09T13:14:35.814Z,933
2017-08-09T13:15:42.642Z,927
2017-08-09T13:16:50.130Z,930
2017-08-09T13:17:57.966Z,932
2017-08-09T13:19:05.129Z,933
2017-08-09T13:20:12.626Z,931
2017-08-09T13:21:20.112Z,935
2017-08-09T13:22:27.603Z,939
2017-08-09T13:23:35.388Z,941
2017-08-09T13:24:42.880Z,942
2017-08-09T13:25:50.372Z,941
2017-08-09T13:26:57.866Z,942
2017-08-09T13:28:05.357Z,944
2017-08-09T13:29:13.368Z,945
2017-08-09T13:30:20.852Z,946
2017-08-09T13:31:28.404Z,946
2017-08-09T13:32:35.921Z,946
2017-08-09T13:33:43.423Z,947
2017-08-09T13:34:50.952Z,945
2017-08-09T13:35:58.104Z,942
2017-08-09T13:37:05.594Z,942
2017-08-09T13:38:13.078Z,939
2017-08-09T13:39:20.564Z,936
2017-08-09T13:40:28.356Z,938
2017-08-09T13:41:35.844Z,933
2017-08-09T13:42:43.007Z,931
2017-08-09T13:43:50.494Z,926
2017-08-09T13:44:57.689Z,924
2017-08-09T13:46:05.479Z,931
2017-08-09T13:47:12.975Z,929
2017-08-09T13:48:20.467Z,927
2017-08-09T13:49:28.111Z,928
2017-08-09T13:50:35.608Z,930
2017-08-09T13:51:43.097Z,930
2017-08-09T13:52:50.826Z,932
2017-08-09T13:53:58.316Z,930
2017-08-09T13:55:05.816Z,929
2017-08-09T13:56:13.321Z,930
2017-08-09T13:57:21.110Z,930
2017-08-09T13:58:28.607Z,932
2017-08-09T13:59:36.094Z,931
2017-08-09T14:00:43.589Z,932
2017-08-09T14:01:51.079Z,933
2017-08-09T14:02:58.874Z,934
2017-08-09T14:04:06.033Z,935
2017-08-09T14:05:13.542Z,937
2017-08-09T14:06:20.736Z,939
2017-08-09T14:07:28.211Z,944
2017-08-09T14:08:35.668Z,942
2017-08-09T14:09:43.159Z,939
2017-08-09T14:10:50.644Z,937
2017-08-09T14:11:58.138Z,940
2017-08-09T14:13:05.631Z,946
2017-08-09T14:15:20.773Z,940
2017-08-09T14:16:28.268Z,935
2017-08-09T14:17:35.758Z,935
2017-08-09T14:18:43.256Z,941
2017-08-09T14:19:51.044Z,939
2017-08-09T14:20:58.538Z,940
2017-08-09T14:22:06.027Z,941
2017-08-09T14:23:13.522Z,942
2017-08-09T14:24:21.011Z,946
2017-08-09T14:25:28.811Z,943
2017-08-09T14:26:36.300Z,945
2017-08-09T14:27:43.795Z,947
2017-08-09T14:28:51.295Z,950
2017-08-09T14:29:58.790Z,951
2017-08-09T14:31:06.271Z,954
2017-08-09T14:32:13.755Z,953
2017-08-09T14:33:21.244Z,954
2017-08-09T14:34:28.738Z,953
2017-08-09T14:35:36.241Z,953
2017-08-09T14:36:44.027Z,952
2017-08-09T14:37:51.524Z,952
2017-08-09T14:38:59.015Z,952
2017-08-09T14:40:06.511Z,953
2017-08-09T14:41:13.675Z,954
2017-08-09T14:42:21.534Z,951
2017-08-09T14:43:28.697Z,946
2017-08-09T14:44:35.895Z,944
2017-08-09T14:45:43.385Z,941
2017-08-09T14:46:50.884Z,939
2017-08-09T14:47:58.340Z,938
2017-08-09T14:49:05.837Z,936
2017-08-09T14:50:13.563Z,935
2017-08-09T14:51:21.059Z,935
2017-08-09T14:52:28.784Z,939
2017-08-09T14:53:36.570Z,941
2017-08-09T14:54:44.077Z,939
2017-08-09T14:55:51.565Z,938
2017-08-09T14:56:59.087Z,938
2017-08-09T14:58:06.579Z,937
2017-08-09T14:59:14.434Z,936
2017-08-09T15:00:21.928Z,936
2017-08-09T15:01:29.088Z,936
2017-08-09T15:02:36.587Z,936
2017-08-09T15:03:44.100Z,939
2017-08-09T15:04:51.597Z,938
2017-08-09T15:05:59.050Z,941
2017-08-09T15:07:06.546Z,944
2017-08-09T15:08:14.034Z,945
2017-08-09T15:09:21.523Z,945
2017-08-09T15:10:28.694Z,942
2017-08-09T15:11:36.434Z,940
2017-08-09T15:12:43.933Z,939
2017-08-09T15:13:51.457Z,941
2017-08-09T15:14:58.942Z,940
2017-08-09T15:16:06.112Z,940
2017-08-09T15:17:13.917Z,940
2017-08-09T15:18:21.065Z,940
2017-08-09T15:19:28.560Z,939
2017-08-09T15:20:35.717Z,946
2017-08-09T15:21:43.208Z,949
2017-08-09T15:22:51.016Z,948
2017-08-09T15:23:58.178Z,945
2017-08-09T15:25:05.677Z,944
2017-08-09T15:26:13.172Z,943
2017-08-09T15:27:20.662Z,944
2017-08-09T15:28:28.509Z,950
2017-08-09T15:29:36.010Z,951
2017-08-09T15:30:43.168Z,949
2017-08-09T15:31:50.662Z,948
2017-08-09T15:32:58.150Z,953
2017-08-09T15:34:06.008Z,958